createdAt,value
2022-11-02T00:01:20.429Z,99610.25
2022-11-02T00:03:48.030Z,99615.66
2022-11-02T00:06:14.868Z,99618.31
2022-11-02T00:08:41.745Z,99610.78
2022-11-02T00:11:08.768Z,99621.09
2022-11-02T00:13:35.596Z,99605.91
2022-11-02T00:16:09.970Z,99611.81
2022-11-02T00:18:37.221Z,99616.88
2022-11-02T00:21:05.184Z,99613.63
2022-11-02T00:23:32.705Z,99622.19
2022-11-02T00:26:02.698Z,99604.44
2022-11-02T00:28:30.816Z,99608.91
2022-11-02T00:30:57.896Z,99616.53
2022-11-02T00:33:25.006Z,99623.31
2022-11-02T00:35:53.192Z,99617.59
2022-11-02T00:38:20.266Z,99621.94
2022-11-02T00:40:47.075Z,99632.91
2022-11-02T00:43:13.959Z,99633.09
2022-11-02T00:45:41.349Z,99635.69
2022-11-02T00:48:08.288Z,99628.16
2022-11-02T00:50:35.220Z,99641.78
2022-11-02T00:53:01.993Z,99638.56
2022-11-02T00:55:28.882Z,99635.19
2022-11-02T00:57:55.698Z,99648.81
2022-11-02T01:00:22.551Z,99637.66
2022-11-02T01:02:49.513Z,99635.34
2022-11-02T01:05:16.564Z,99636.28
2022-11-02T01:07:43.388Z,99631.09
2022-11-02T01:10:11.853Z,99633.63
2022-11-02T01:12:40.527Z,99643.00
2022-11-02T01:15:08.718Z,99635.34
2022-11-02T01:17:35.724Z,99643.97
2022-11-02T01:20:03.871Z,99640.47
2022-11-02T01:22:31.272Z,99625.31
2022-11-02T01:24:58.048Z,99632.16
2022-11-02T01:27:25.587Z,99621.97
2022-11-02T01:29:52.406Z,99633.22
2022-11-02T01:32:19.166Z,99630.75
2022-11-02T01:34:45.928Z,99636.66
2022-11-02T01:37:12.766Z,99629.97
2022-11-02T01:39:39.690Z,99636.06
2022-11-02T01:42:22.467Z,99629.81
2022-11-02T01:44:49.378Z,99629.84
2022-11-02T01:47:33.719Z,99620.59
2022-11-02T01:50:27.479Z,99608.81
2022-11-02T01:52:54.721Z,99617.19
2022-11-02T01:55:32.763Z,99616.34
2022-11-02T01:58:10.343Z,99624.06
2022-11-02T02:00:38.617Z,99617.06
2022-11-02T02:03:18.167Z,99613.94
2022-11-02T02:06:06.987Z,99613.94
2022-11-02T02:08:37.638Z,99615.63
2022-11-02T02:11:27.029Z,99606.97
2022-11-02T02:14:01.572Z,99591.63
2022-11-02T02:16:42.686Z,99594.06
2022-11-02T02:19:29.762Z,99595.75
2022-11-02T02:22:16.263Z,99587.13
2022-11-02T02:24:59.006Z,99589.84
2022-11-02T02:27:56.962Z,99588.97
2022-11-02T02:30:23.858Z,99575.44
2022-11-02T02:32:59.381Z,99571.16
2022-11-02T02:35:44.003Z,99571.25
2022-11-02T02:38:49.867Z,99574.56
2022-11-02T02:41:29.885Z,99572.09
2022-11-02T02:43:58.760Z,99560.22
2022-11-02T02:46:44.665Z,99573.97
2022-11-02T02:49:20.275Z,99568.13
2022-11-02T02:51:47.680Z,99564.81
2022-11-02T02:54:26.466Z,99566.44
2022-11-02T02:56:58.650Z,99564.84
2022-11-02T02:59:32.309Z,99582.78
2022-11-02T03:01:59.413Z,99578.47
2022-11-02T03:04:26.301Z,99571.75
2022-11-02T03:06:57.702Z,99571.00
2022-11-02T03:10:05.878Z,99569.91
2022-11-02T03:13:08.233Z,99577.81
2022-11-02T03:15:43.731Z,99561.53
2022-11-02T03:18:14.680Z,99560.66
2022-11-02T03:20:56.706Z,99559.81
2022-11-02T03:23:29.291Z,99571.03
2022-11-02T03:26:18.031Z,99574.44
2022-11-02T03:29:05.040Z,99559.25
2022-11-02T03:31:47.054Z,99571.34
2022-11-02T03:34:37.393Z,99587.47
2022-11-02T03:37:27.551Z,99582.53
2022-11-02T03:40:11.586Z,99577.25
2022-11-02T03:42:40.734Z,99586.75
2022-11-02T03:45:16.752Z,99575.72
2022-11-02T03:47:47.908Z,99585.16
2022-11-02T03:50:20.446Z,99593.72
2022-11-02T03:52:52.908Z,99578.44
2022-11-02T03:55:30.106Z,99598.22
2022-11-02T03:57:57.603Z,99602.28
2022-11-02T04:00:26.750Z,99600.53
2022-11-02T04:03:00.769Z,99592.97
2022-11-02T04:05:32.689Z,99597.28
2022-11-02T04:08:18.293Z,99598.91
2022-11-02T04:11:04.090Z,99598.00
2022-11-02T04:13:49.841Z,99597.09
2022-11-02T04:16:17.177Z,99602.34
2022-11-02T04:19:07.339Z,99604.88
2022-11-02T04:21:34.274Z,99598.91
2022-11-02T04:24:19.366Z,99594.63
2022-11-02T04:26:46.225Z,99604.13
2022-11-02T04:29:13.081Z,99609.25
2022-11-02T04:31:39.860Z,99608.44
2022-11-02T04:34:06.739Z,99613.69
2022-11-02T04:36:33.518Z,99603.47
2022-11-02T04:39:00.329Z,99595.69
2022-11-02T04:41:42.561Z,99608.44
2022-11-02T04:44:17.405Z,99592.53
2022-11-02T04:46:44.982Z,99613.69
2022-11-02T04:49:12.489Z,99624.63
2022-11-02T04:51:45.730Z,99623.97
2022-11-02T04:54:15.628Z,99624.03
2022-11-02T04:56:42.430Z,99618.66
2022-11-02T04:59:09.234Z,99605.25
2022-11-02T05:01:36.242Z,99630.00
2022-11-02T05:04:03.166Z,99631.53
2022-11-02T05:06:29.994Z,99622.44
2022-11-02T05:08:56.849Z,99631.81
2022-11-02T05:11:24.307Z,99628.34
2022-11-02T05:13:51.204Z,99626.63
2022-11-02T05:16:18.192Z,99636.94
2022-11-02T05:18:45.030Z,99625.13
2022-11-02T05:21:12.978Z,99642.00
2022-11-02T05:23:39.934Z,99642.00
2022-11-02T05:26:10.944Z,99646.34
2022-11-02T05:28:37.988Z,99635.44
2022-11-02T05:31:05.043Z,99650.03
2022-11-02T05:33:32.944Z,99644.88
2022-11-02T05:36:00.597Z,99647.41
2022-11-02T05:38:28.531Z,99655.75
2022-11-02T05:40:58.270Z,99653.41
2022-11-02T05:43:25.684Z,99651.81
2022-11-02T05:46:01.772Z,99665.56
2022-11-02T05:48:32.425Z,99654.34
2022-11-02T05:51:01.968Z,99657.00
2022-11-02T05:53:32.555Z,99644.25
2022-11-02T05:56:03.576Z,99660.28
2022-11-02T05:58:30.895Z,99665.44
2022-11-02T06:01:06.806Z,99654.38
2022-11-02T06:03:34.219Z,99651.88
2022-11-02T06:06:04.971Z,99659.66
2022-11-02T06:08:36.924Z,99656.19
2022-11-02T06:11:10.035Z,99660.50
2022-11-02T06:13:37.287Z,99666.56
2022-11-02T06:16:07.863Z,99671.72
2022-11-02T06:18:34.729Z,99669.50
2022-11-02T06:21:01.639Z,99683.09
2022-11-02T06:23:29.542Z,99669.50
2022-11-02T06:25:59.112Z,99672.75
2022-11-02T06:28:26.409Z,99685.66
2022-11-02T06:30:53.824Z,99688.41
2022-11-02T06:33:21.589Z,99693.16
2022-11-02T06:35:51.245Z,99693.34
2022-11-02T06:38:18.558Z,99701.22
2022-11-02T06:40:55.020Z,99701.47
2022-11-02T06:43:22.773Z,99710.78
2022-11-02T06:45:49.838Z,99706.41
2022-11-02T06:48:16.686Z,99706.50
2022-11-02T06:50:43.616Z,99716.81
2022-11-02T06:53:11.030Z,99708.34
2022-11-02T06:55:37.839Z,99722.72
2022-11-02T06:58:04.616Z,99723.59
2022-11-02T07:00:31.723Z,99730.28
2022-11-02T07:03:09.218Z,99739.75
2022-11-02T07:05:36.853Z,99735.34
2022-11-02T07:08:04.986Z,99734.50
2022-11-02T07:10:32.061Z,99737.91
2022-11-02T07:12:58.915Z,99742.97
2022-11-02T07:15:27.437Z,99754.13
2022-11-02T07:17:54.481Z,99753.38
2022-11-02T07:20:21.921Z,99759.19
2022-11-02T07:22:58.382Z,99765.94
2022-11-02T07:25:27.219Z,99747.97
2022-11-02T07:27:54.900Z,99760.44
2022-11-02T07:30:21.700Z,99767.34
2022-11-02T07:32:48.771Z,99764.69
2022-11-02T07:35:17.301Z,99740.16
2022-11-02T07:37:44.551Z,99762.16
2022-11-02T07:40:14.168Z,99773.88
2022-11-02T07:42:45.946Z,99771.25
2022-11-02T07:45:13.254Z,99742.25
2022-11-02T07:47:45.186Z,99775.31
2022-11-02T07:50:14.590Z,99777.78
2022-11-02T07:52:50.193Z,99775.88
2022-11-02T07:55:20.968Z,99775.88
2022-11-02T07:58:06.093Z,99773.97
2022-11-02T08:00:39.051Z,99784.00
2022-11-02T08:03:09.236Z,99792.47
2022-11-02T08:05:39.524Z,99788.84
2022-11-02T08:08:17.300Z,99793.09
2022-11-02T08:10:46.631Z,99788.63
2022-11-02T08:13:17.482Z,99784.19
2022-11-02T08:15:44.744Z,99784.81
2022-11-02T08:18:26.512Z,99775.28
2022-11-02T08:20:56.653Z,99785.53
2022-11-02T08:23:24.721Z,99789.66
2022-11-02T08:25:53.384Z,99788.56
2022-11-02T08:28:25.970Z,99776.53
2022-11-02T08:30:53.320Z,99777.13
2022-11-02T08:33:21.228Z,99790.72
2022-11-02T08:35:49.161Z,99785.41
2022-11-02T08:38:17.442Z,99784.34
2022-11-02T08:40:44.890Z,99786.78
2022-11-02T08:43:14.416Z,99775.56
2022-11-02T08:48:31.828Z,99780.09
2022-11-02T08:50:59.970Z,99779.38
2022-11-02T08:53:26.950Z,99782.53
2022-11-02T08:55:53.945Z,99769.84
2022-11-02T08:58:20.775Z,99789.94
2022-11-02T09:00:47.668Z,99783.91
2022-11-02T09:03:15.751Z,99794.09
2022-11-02T09:05:47.545Z,99797.22
2022-11-02T09:08:20.541Z,99791.81
2022-11-02T09:10:51.793Z,99773.00
2022-11-02T09:13:25.220Z,99783.75
2022-11-02T09:15:55.692Z,99789.63
2022-11-02T09:18:23.577Z,99786.13
2022-11-02T09:20:51.225Z,99787.66
2022-11-02T09:23:20.523Z,99775.63
2022-11-02T09:25:48.708Z,99790.75
2022-11-02T09:28:15.736Z,99795.69
2022-11-02T09:30:43.454Z,99788.88
2022-11-02T09:33:10.778Z,99793.69
2022-11-02T09:35:44.947Z,99784.06
2022-11-02T09:38:12.639Z,99792.50
2022-11-02T09:40:39.323Z,99791.50
2022-11-02T09:43:41.458Z,99787.88
2022-11-02T09:46:24.137Z,99789.41
2022-11-02T09:49:15.487Z,99774.53
2022-11-02T09:51:50.132Z,99786.50
2022-11-02T09:54:35.587Z,99778.63
2022-11-02T09:57:08.937Z,99769.22
2022-11-02T09:59:35.905Z,99778.47
2022-11-02T10:02:18.925Z,99792.03
2022-11-02T10:05:38.205Z,99797.19
2022-11-02T10:08:39.656Z,99804.69
2022-11-02T10:11:32.885Z,99807.13
2022-11-02T10:14:16.558Z,99804.31
2022-11-02T10:16:53.477Z,99792.91
2022-11-02T10:19:24.870Z,99800.53
2022-11-02T10:21:58.545Z,99795.13
2022-11-02T10:24:33.792Z,99786.53
2022-11-02T10:27:10.253Z,99788.72
2022-11-02T10:29:52.360Z,99788.59
2022-11-02T10:32:19.270Z,99782.34
2022-11-02T10:34:58.633Z,99785.66
2022-11-02T10:38:01.289Z,99766.66
2022-11-02T10:41:02.321Z,99779.19
2022-11-02T10:43:39.826Z,99781.66
2022-11-02T10:47:03.988Z,99783.97
2022-11-02T10:50:11.025Z,99773.34
2022-11-02T10:52:42.282Z,99780.03
2022-11-02T10:55:26.195Z,99772.88
2022-11-02T10:57:56.973Z,99760.75
2022-11-02T11:00:34.551Z,99764.59
2022-11-02T11:03:16.631Z,99769.69
2022-11-02T11:06:05.219Z,99770.31
2022-11-02T11:08:42.902Z,99775.44
2022-11-02T11:11:21.002Z,99774.38
2022-11-02T11:19:54.690Z,99766.81
2022-11-02T11:22:26.041Z,99765.75
2022-11-02T11:24:53.855Z,99772.50
2022-11-02T11:27:22.421Z,99766.25
2022-11-02T11:29:56.171Z,99762.75
2022-11-02T11:32:31.003Z,99760.59
2022-11-02T11:35:05.954Z,99752.47
2022-11-02T11:37:33.948Z,99752.97
2022-11-02T11:40:17.320Z,99757.06
2022-11-02T11:42:44.501Z,99747.59
2022-11-02T11:45:28.602Z,99764.59
2022-11-02T11:48:34.105Z,99758.16
2022-11-02T11:51:03.651Z,99759.59
2022-11-02T11:53:31.124Z,99745.84
2022-11-02T11:56:00.218Z,99745.59
2022-11-02T11:58:32.403Z,99734.16
2022-11-02T12:01:18.228Z,99736.22
2022-11-02T12:03:57.370Z,99731.75
2022-11-02T12:06:51.951Z,99741.22
2022-11-02T12:10:03.495Z,99733.34
2022-11-02T12:12:58.707Z,99722.72
2022-11-02T12:15:28.464Z,99716.25
2022-11-02T12:18:18.837Z,99720.50
2022-11-02T12:21:22.377Z,99731.22
2022-11-02T12:24:14.870Z,99718.00
2022-11-02T12:27:07.978Z,99711.53
2022-11-02T12:30:16.727Z,99706.13
2022-11-02T12:33:32.406Z,99696.25
2022-11-02T12:36:17.277Z,99698.00
2022-11-02T12:38:58.877Z,99694.59
2022-11-02T12:42:07.057Z,99689.84
2022-11-02T12:45:07.343Z,99690.84
2022-11-02T12:47:57.564Z,99685.03
2022-11-02T12:51:05.380Z,99691.00
2022-11-02T12:53:57.399Z,99694.72
2022-11-02T12:56:46.001Z,99684.75
2022-11-02T12:59:32.733Z,99688.13
2022-11-02T13:02:19.800Z,99677.19
2022-11-02T13:05:00.808Z,99668.41
2022-11-02T13:08:06.780Z,99653.31
2022-11-02T13:10:41.952Z,99671.59
2022-11-02T13:13:18.053Z,99676.09
2022-11-02T13:15:47.774Z,99671.03
2022-11-02T13:18:30.577Z,99674.41
2022-11-02T13:21:01.105Z,99670.13
2022-11-02T13:23:34.212Z,99673.41
2022-11-02T13:26:13.502Z,99666.75
2022-11-02T13:28:54.993Z,99666.75
2022-11-02T13:31:35.847Z,99677.78
2022-11-02T13:34:17.808Z,99661.34
2022-11-02T13:36:46.344Z,99655.38
2022-11-02T13:39:39.498Z,99648.56
2022-11-02T13:42:35.327Z,99653.03
2022-11-02T13:45:26.978Z,99653.13
2022-11-02T13:48:06.874Z,99659.25
2022-11-02T13:50:48.463Z,99644.22
2022-11-02T13:53:22.494Z,99647.50
2022-11-02T13:56:05.468Z,99652.88
2022-11-02T13:58:36.793Z,99654.31
2022-11-02T14:01:10.356Z,99655.34
2022-11-02T14:04:07.258Z,99652.78
2022-11-02T14:06:49.562Z,99649.53
2022-11-02T14:09:33.029Z,99653.63
2022-11-02T14:12:17.733Z,99651.78
2022-11-02T14:14:45.739Z,99655.25
2022-11-02T14:17:19.206Z,99655.16
2022-11-02T14:19:52.044Z,99665.59
2022-11-02T14:22:20.113Z,99650.78
2022-11-02T14:24:48.221Z,99654.31
2022-11-02T14:27:19.199Z,99651.78
2022-11-02T14:29:46.078Z,99651.78
2022-11-02T14:32:22.316Z,99649.94
2022-11-02T14:35:10.323Z,99642.19
2022-11-02T14:38:03.315Z,99644.63
2022-11-02T14:41:16.267Z,99646.38
2022-11-02T14:44:06.547Z,99648.09
2022-11-02T14:46:57.331Z,99649.94
2022-11-02T14:49:31.844Z,99646.19
2022-11-02T14:52:24.648Z,99645.38
2022-11-02T14:55:05.511Z,99645.47
2022-11-02T14:57:42.874Z,99640.06
2022-11-02T15:00:37.042Z,99637.25
2022-11-02T15:03:38.550Z,99633.66
2022-11-02T15:06:18.365Z,99642.31
2022-11-02T15:08:55.777Z,99650.91
2022-11-02T15:11:47.301Z,99645.66
2022-11-02T15:14:50.369Z,99637.06
2022-11-02T15:17:17.093Z,99636.16
2022-11-02T15:19:53.423Z,99630.19
2022-11-02T15:22:32.169Z,99636.25
2022-11-02T15:25:16.886Z,99632.22
2022-11-02T15:27:45.060Z,99642.50
2022-11-02T15:30:22.537Z,99614.84
2022-11-02T15:33:01.479Z,99628.84
2022-11-02T15:35:37.748Z,99630.53
2022-11-02T15:38:29.577Z,99627.19
2022-11-02T15:41:27.215Z,99624.72
2022-11-02T15:44:24.905Z,99623.91
2022-11-02T15:47:08.365Z,99625.00
2022-11-02T15:50:20.141Z,99629.66
2022-11-02T15:53:24.235Z,99623.78
2022-11-02T15:56:36.656Z,99626.47
2022-11-02T16:00:00.202Z,99624.88
2022-11-02T16:02:31.819Z,99614.78
2022-11-02T16:05:01.922Z,99626.09
2022-11-02T16:07:38.522Z,99627.09
2022-11-02T16:10:28.670Z,99623.13
2022-11-02T16:13:00.484Z,99622.38
2022-11-02T16:15:28.319Z,99620.72
2022-11-02T16:17:55.261Z,99615.09
2022-11-02T16:20:34.398Z,99625.75
2022-11-02T16:23:04.496Z,99629.41
2022-11-02T16:25:47.189Z,99623.59
2022-11-02T16:28:22.530Z,99628.06
2022-11-02T16:31:18.120Z,99637.72
2022-11-02T16:33:54.822Z,99627.75
2022-11-02T16:36:28.240Z,99628.19
2022-11-02T16:39:17.854Z,99627.75
2022-11-02T16:41:52.361Z,99628.59
2022-11-02T16:44:28.473Z,99608.94
2022-11-02T16:47:17.904Z,99608.84
2022-11-02T16:49:53.251Z,99615.81
2022-11-02T16:52:23.804Z,99613.53
2022-11-02T16:54:50.651Z,99608.66
2022-11-02T16:57:26.036Z,99611.44
2022-11-02T17:00:15.411Z,99603.50
2022-11-02T17:02:44.040Z,99603.84
2022-11-02T17:05:18.106Z,99608.19
2022-11-02T17:08:00.684Z,99604.66
2022-11-02T17:10:29.410Z,99603.16
2022-11-02T17:12:57.369Z,99607.97
2022-11-02T17:15:27.626Z,99603.09
2022-11-02T17:18:20.617Z,99601.91
2022-11-02T17:20:48.300Z,99603.13
2022-11-02T17:23:36.034Z,99608.00
2022-11-02T17:26:24.136Z,99608.16
2022-11-02T17:29:19.761Z,99601.41
2022-11-02T17:31:53.285Z,99599.91
2022-11-02T17:34:20.608Z,99588.41
2022-11-02T17:36:49.366Z,99601.94
2022-11-02T17:39:19.158Z,99584.38
2022-11-02T17:42:12.337Z,99590.09
2022-11-02T17:44:39.871Z,99585.50
2022-11-02T17:47:12.941Z,99589.00
2022-11-02T17:49:39.810Z,99586.66
2022-11-02T17:52:07.131Z,99576.53
2022-11-02T17:54:34.000Z,99568.44
2022-11-02T17:57:02.166Z,99567.97
2022-11-02T17:59:29.202Z,99579.97
2022-11-02T18:01:57.429Z,99582.19
2022-11-02T18:04:24.346Z,99585.59
2022-11-02T18:06:51.183Z,99583.94
2022-11-02T18:09:19.652Z,99590.81
2022-11-02T18:11:47.239Z,99581.84
2022-11-02T18:14:16.607Z,99568.44
2022-11-02T18:16:44.686Z,99567.69
2022-11-02T18:19:12.178Z,99564.72
2022-11-02T18:21:39.031Z,99570.84
2022-11-02T18:24:06.668Z,99569.38
2022-11-02T18:26:35.565Z,99581.25
2022-11-02T18:29:04.226Z,99567.91
2022-11-02T18:31:32.349Z,99575.41
2022-11-02T18:33:59.217Z,99572.00
2022-11-02T18:36:26.131Z,99572.09
2022-11-02T18:38:53.125Z,99570.59
2022-11-02T18:41:32.054Z,99572.44
2022-11-02T18:44:04.923Z,99565.56
2022-11-02T18:46:35.247Z,99570.13
2022-11-02T18:49:02.230Z,99565.34
2022-11-02T18:51:29.291Z,99554.88
2022-11-02T18:54:03.605Z,99558.47
2022-11-02T18:56:30.976Z,99554.19
2022-11-02T18:58:58.395Z,99563.13
2022-11-02T19:01:26.330Z,99561.34
2022-11-02T19:03:58.916Z,99563.22
2022-11-02T19:06:47.662Z,99555.03
2022-11-02T19:09:19.078Z,99541.25
2022-11-02T19:12:02.114Z,99545.28
2022-11-02T19:14:35.517Z,99542.81
2022-11-02T19:17:02.795Z,99536.94
2022-11-02T19:19:29.887Z,99558.56
2022-11-02T19:21:56.873Z,99546.59
2022-11-02T19:24:23.827Z,99540.16
2022-11-02T19:26:51.379Z,99555.56
2022-11-02T19:29:18.906Z,99554.72
2022-11-02T19:31:46.612Z,99542.25
2022-11-02T19:34:13.555Z,99545.72
2022-11-02T19:36:40.827Z,99548.53
2022-11-02T19:39:09.665Z,99548.22
2022-11-02T19:41:38.597Z,99545.97
2022-11-02T19:44:06.473Z,99548.09
2022-11-02T19:46:34.165Z,99556.09
2022-11-02T19:49:01.069Z,99557.91
2022-11-02T19:51:30.355Z,99559.00
2022-11-02T19:54:02.048Z,99552.19
2022-11-02T19:56:32.480Z,99547.31
2022-11-02T19:58:59.897Z,99559.34
2022-11-02T20:01:30.556Z,99545.53
2022-11-02T20:03:58.584Z,99544.16
2022-11-02T20:06:38.293Z,99550.00
2022-11-02T20:09:07.928Z,99550.28
2022-11-02T20:11:36.157Z,99537.47
2022-11-02T20:14:05.033Z,99549.56
2022-11-02T20:16:31.940Z,99542.16
2022-11-02T20:18:59.230Z,99544.81
2022-11-02T20:21:33.402Z,99536.19
2022-11-02T20:24:04.214Z,99537.25
2022-11-02T20:26:34.926Z,99541.63
2022-11-02T20:29:04.410Z,99545.03
2022-11-02T20:31:35.530Z,99529.88
2022-11-02T20:34:03.925Z,99506.31
2022-11-02T20:36:30.888Z,99535.94
2022-11-02T20:38:58.360Z,99521.88
2022-11-02T20:41:26.681Z,99520.16
2022-11-02T20:43:57.410Z,99545.72
2022-11-02T20:46:39.179Z,99538.88
2022-11-02T20:49:20.805Z,99536.50
2022-11-02T20:51:52.733Z,99517.91
2022-11-02T20:54:20.758Z,99541.03
2022-11-02T20:56:49.558Z,99540.31
2022-11-02T20:59:16.455Z,99525.97
2022-11-02T21:01:43.452Z,99521.94
2022-11-02T21:04:12.867Z,99519.50
2022-11-02T21:06:45.330Z,99527.84
2022-11-02T21:09:12.406Z,99522.28
2022-11-02T21:11:58.011Z,99528.34
2022-11-02T21:14:24.817Z,99521.63
2022-11-02T21:16:51.869Z,99525.88
2022-11-02T21:19:18.776Z,99526.88
2022-11-02T21:21:45.631Z,99524.56
2022-11-02T21:24:12.573Z,99526.97
2022-11-02T21:26:39.580Z,99521.06
2022-11-02T21:29:06.441Z,99519.63
2022-11-02T21:31:33.318Z,99525.69
2022-11-02T21:34:00.216Z,99522.50
2022-11-02T21:36:27.121Z,99514.00
2022-11-02T21:38:54.115Z,99524.09
2022-11-02T21:41:26.151Z,99515.66
2022-11-02T21:43:55.392Z,99509.91
2022-11-02T21:46:24.123Z,99520.19
2022-11-02T21:48:51.016Z,99513.28
2022-11-02T21:51:20.973Z,99503.13
2022-11-02T21:53:49.710Z,99509.13
2022-11-02T21:56:30.604Z,99506.00
2022-11-02T21:58:57.618Z,99492.50
2022-11-02T22:01:46.539Z,99507.78
2022-11-02T22:04:24.875Z,99500.16
2022-11-02T22:06:52.811Z,99496.75
2022-11-02T22:09:19.895Z,99493.38
2022-11-02T22:11:46.967Z,99474.78
2022-11-02T22:14:14.490Z,99489.06
2022-11-02T22:16:43.325Z,99475.28
2022-11-02T22:19:13.283Z,99460.06
2022-11-02T22:21:44.903Z,99470.09
2022-11-02T22:24:12.463Z,99477.75
2022-11-02T22:26:40.432Z,99476.38
2022-11-02T22:29:08.394Z,99475.44
2022-11-02T22:31:38.870Z,99481.28
2022-11-02T22:34:08.156Z,99478.72
2022-11-02T22:36:35.531Z,99481.28
2022-11-02T22:39:06.000Z,99473.84
2022-11-02T22:41:39.540Z,99476.38
2022-11-02T22:44:11.554Z,99462.84
2022-11-02T22:46:49.579Z,99475.50
2022-11-02T22:49:18.562Z,99476.44
2022-11-02T22:51:48.327Z,99468.03
2022-11-02T22:54:18.547Z,99476.66
2022-11-02T22:56:47.799Z,99462.38
2022-11-02T22:59:15.217Z,99471.41
2022-11-02T23:01:42.721Z,99470.69
2022-11-02T23:04:11.864Z,99468.88
2022-11-02T23:06:39.273Z,99459.50
2022-11-02T23:09:06.531Z,99445.38
2022-11-02T23:11:36.681Z,99457.19
2022-11-02T23:14:10.588Z,99460.56
2022-11-02T23:16:44.189Z,99442.94
2022-11-02T23:19:27.206Z,99451.34
2022-11-02T23:22:19.161Z,99447.97
2022-11-02T23:25:05.597Z,99449.03
2022-11-02T23:27:55.580Z,99451.03
2022-11-02T23:30:42.076Z,99450.16
2022-11-02T23:33:09.133Z,99453.59
2022-11-02T23:35:55.090Z,99458.84
2022-11-02T23:38:22.062Z,99454.72
2022-11-02T23:40:53.489Z,99437.72
2022-11-02T23:43:20.300Z,99455.66
2022-11-02T23:45:47.609Z,99458.25
2022-11-02T23:51:04.454Z,99453.97
2022-11-02T23:53:49.975Z,99451.44
2022-11-02T23:56:35.727Z,99438.84
2022-11-02T23:59:08.521Z,99449.09
